Lake Charles, LA

9:44 PM CST on March 03, 2015 (GMT -0600)
Chennault International | Change Station
CLOSE
Current Station
Airport
Location: Lake Charles,
Elevation: 13 ft
Nearby Weather Stations
Active Advisory: Dense Fog Advisory

Elev 13 ft 30.21 °N, 93.14 °W | Updated 9 minutes ago

Overcast
Overcast
68 °F
Feels Like 68 °F
N
7
Wind Variable Wind from South

Today
High -- | Low -- °F
--% Chance of Precip.
Yesterday
High -- | Low -- °F
Precip. -- in
6:36 AM 6:12 PM
Waxing Gibbous, 98% visible
Pressure 29.96 in
Visibility 7.0 miles
Clouds Overcast 400 ft
Dew Point 68 °F
Humidity 97%
Rainfall 0.00 in
Snow Depth Not available.
UV 0 out of 12
Pollen 9.50 out of 12
Air Quality Not available.
Flu Activity Not available.
METAR KCWF 040335Z AUTO 18006KT 7SM OVC004 20/20 A2996 RMK AO2 T02020197

More Conditions Fewer Conditions

Pressure 29.96 in
Visibility 7.0 miles
Clouds Overcast 400 ft
Dew Point 68 °F
Humidity 97%
Rainfall 0.00 in
Snow Depth Not available.
UV 0 out of 12
Pollen 9.50 out of 12
Air Quality Not available.
Flu Activity Not available.
METAR KCWF 040335Z AUTO 18006KT 7SM OVC004 20/20 A2996 RMK AO2 T02020197

More Conditions Fewer Conditions

10-Day Weather Forecast

Almanac

Astronomy

Mar. 03, 2015 Rise Set
Actual Time
Civil Twilight
Nautical Twilight
Astronomical Twilight
Moon
Length of Visible Light
Length of Day
Tomorrow will be .
, % of the Moon is Illuminated

Today's Extremes

State Highs State Lows

Community

WunderPhotos

Upload Photos

1,802,379 photos uploaded!

WunderBlogs® & News

Nearby

Air Quality

  Air Quality AQ Index Pollutant
Not available.

Snow Depth

Station Depth Elevation

Earthquake Activity

City Distance Mag. Time & Date
Minimum magnitude displayed is 2.5.

Coastal Water Temperatures

Place Temperature

Nearby Weather Stations

Dense Fog Advisory
Statement as of 8:21 PM CST on March 03, 2015

... Dense fog advisory remains in effect until 10 am CST
Wednesday...

* visibility... one quarter of a mile or less at times.

* Impacts... reduced visibility making for hazardous driving
conditions... especially when visibility change quickly over a
short distance.

Precautionary/preparedness actions...

A dense fog advisory means visibility will frequently be reduced
to less than one quarter mile. If driving... slow down... use your
headlights... and leave plenty of distance ahead of you.